Westover, Alabama
Current Conditions -  °F | °C
As of 11:53 AM on Monday 22 Dec 2014 (Local Time) from KEET Reporting Station
Overcast Overcast  
Wind Chill: 53°   Ceiling: 600
Heat Index: 53°   Visibility: 10mi
Dew Point: 51°   Wind: 7mph
Humidity: 93%   Direction: NA
Pressure: 29.86"   Gusts: NA
Location:  33.35°N, 86.54°W
Report Text: KEET 221753Z AUTO VRB06KT 10SM OVC006 12/11 A2986 RMK AO2 SLP108 T01170106 10117 20100 58029
Loading
Personal Weather Stations






























Interactive Weather Map New forecast layout! Learn more

10-Day Weather Forecast

Advertisements
Track Severe Weather on mobile